createdAt,value
2022-12-29T00:00:36.998Z,987.22
2022-12-29T00:01:36.993Z,987.22
2022-12-29T00:02:37.095Z,987.26
2022-12-29T00:03:37.129Z,987.31
2022-12-29T00:04:37.062Z,987.29
2022-12-29T00:05:37.055Z,987.19
2022-12-29T00:06:37.069Z,987.24
2022-12-29T00:07:37.089Z,987.27
2022-12-29T00:08:37.104Z,987.17
2022-12-29T00:09:37.122Z,987.24
2022-12-29T00:10:37.583Z,987.24
2022-12-29T00:11:37.147Z,987.17
2022-12-29T00:12:37.162Z,987.2
2022-12-29T00:13:37.179Z,987.19
2022-12-29T00:14:37.199Z,987.22
2022-12-29T00:15:37.260Z,987.3
2022-12-29T00:16:37.295Z,987.25
2022-12-29T00:17:37.244Z,987.22
2022-12-29T00:18:37.256Z,987.17
2022-12-29T00:19:37.278Z,987.18
2022-12-29T00:20:37.332Z,987.25
2022-12-29T00:21:37.310Z,987.27
2022-12-29T00:22:37.326Z,987.35
2022-12-29T00:23:37.587Z,987.31
2022-12-29T00:24:37.492Z,987.2
2022-12-29T00:25:37.563Z,987.26
2022-12-29T00:26:37.576Z,987.23
2022-12-29T00:27:37.596Z,987.19
2022-12-29T00:28:37.564Z,987.18
2022-12-29T00:29:37.529Z,987.21
2022-12-29T00:30:37.589Z,987.14
2022-12-29T00:31:37.661Z,986.99
2022-12-29T00:32:37.588Z,987.06
2022-12-29T00:33:37.536Z,986.97
2022-12-29T00:34:37.548Z,986.96
2022-12-29T00:35:37.617Z,987.03
2022-12-29T00:36:37.606Z,986.97
2022-12-29T00:37:37.597Z,986.97
2022-12-29T00:38:37.562Z,987.03
2022-12-29T00:39:37.582Z,986.96
2022-12-29T00:40:37.642Z,986.95
2022-12-29T00:41:37.613Z,986.94
2022-12-29T00:42:37.630Z,987
2022-12-29T00:43:37.655Z,987.02
2022-12-29T00:44:37.656Z,986.89
2022-12-29T00:45:37.670Z,986.85
2022-12-29T00:46:37.724Z,986.92
2022-12-29T00:47:37.697Z,986.92
2022-12-29T00:48:37.715Z,986.96
2022-12-29T00:49:37.726Z,986.99
2022-12-29T00:50:37.745Z,986.93
2022-12-29T00:51:37.767Z,986.94
2022-12-29T00:52:37.803Z,986.94
2022-12-29T00:53:37.793Z,986.91
2022-12-29T00:54:37.810Z,986.88
2022-12-29T00:55:37.824Z,986.83
2022-12-29T00:56:37.837Z,986.89
2022-12-29T00:57:37.853Z,986.85
2022-12-29T00:58:37.867Z,986.8
2022-12-29T00:59:37.881Z,986.82
2022-12-29T01:00:37.937Z,986.78
2022-12-29T01:01:38.069Z,986.75
2022-12-29T01:02:38.039Z,986.74
2022-12-29T01:03:37.945Z,986.73
2022-12-29T01:04:37.962Z,986.71
2022-12-29T01:05:37.973Z,986.72
2022-12-29T01:06:37.992Z,986.78
2022-12-29T01:07:38.006Z,986.79
2022-12-29T01:08:38.046Z,986.8
2022-12-29T01:09:38.057Z,986.77
2022-12-29T01:10:38.510Z,986.77
2022-12-29T01:11:38.076Z,986.78
2022-12-29T01:12:38.083Z,986.73
2022-12-29T01:13:38.097Z,986.76
2022-12-29T01:14:38.113Z,986.74
2022-12-29T01:15:38.130Z,986.73
2022-12-29T01:16:38.161Z,986.7
2022-12-29T01:17:38.177Z,986.65
2022-12-29T01:18:38.177Z,986.68
2022-12-29T01:19:38.197Z,986.64
2022-12-29T01:20:38.210Z,986.64
2022-12-29T01:21:38.227Z,986.62
2022-12-29T01:22:38.244Z,986.58
2022-12-29T01:23:38.251Z,986.59
2022-12-29T01:24:38.296Z,986.57
2022-12-29T01:25:38.288Z,986.56
2022-12-29T01:26:38.302Z,986.55
2022-12-29T01:27:38.323Z,986.52
2022-12-29T01:28:38.331Z,986.58
2022-12-29T01:29:38.349Z,986.54
2022-12-29T01:30:38.359Z,986.48
2022-12-29T01:31:38.440Z,986.51
2022-12-29T01:32:38.397Z,986.45
2022-12-29T01:33:38.412Z,986.41
2022-12-29T01:34:38.426Z,986.4
2022-12-29T01:35:38.438Z,986.45
2022-12-29T01:36:38.464Z,986.4
2022-12-29T01:37:38.491Z,986.41
2022-12-29T01:38:38.485Z,986.46
2022-12-29T01:39:38.507Z,986.43
2022-12-29T01:40:38.546Z,986.36
2022-12-29T01:41:38.532Z,986.45
2022-12-29T01:42:38.549Z,986.39
2022-12-29T01:43:38.563Z,986.37
2022-12-29T01:44:38.581Z,986.44
2022-12-29T01:45:38.613Z,986.41
2022-12-29T01:46:38.617Z,986.3
2022-12-29T01:47:38.630Z,986.27
2022-12-29T01:48:38.641Z,986.26
2022-12-29T01:49:38.660Z,986.24
2022-12-29T01:50:38.671Z,986.23
2022-12-29T01:51:38.688Z,986.3
2022-12-29T01:52:38.702Z,986.25
2022-12-29T01:53:38.719Z,986.23
2022-12-29T01:54:38.765Z,986.29
2022-12-29T01:55:38.753Z,986.25
2022-12-29T01:56:38.793Z,986.27
2022-12-29T01:57:38.800Z,986.26
2022-12-29T01:58:38.800Z,986.17
2022-12-29T01:59:38.813Z,986.28
2022-12-29T02:00:38.864Z,986.14
2022-12-29T02:01:39.043Z,986.16
2022-12-29T02:02:38.975Z,986.22
2022-12-29T02:03:38.935Z,986.21
2022-12-29T02:04:38.889Z,986.17
2022-12-29T02:05:38.904Z,986.19
2022-12-29T02:06:38.920Z,986.21
2022-12-29T02:07:38.950Z,986.19
2022-12-29T02:08:38.948Z,986.16
2022-12-29T02:09:38.967Z,986.11
2022-12-29T02:10:39.029Z,986.09
2022-12-29T02:11:39.001Z,986.14
2022-12-29T02:12:39.040Z,986.11
2022-12-29T02:13:39.027Z,986.09
2022-12-29T02:14:39.042Z,986.05
2022-12-29T02:15:39.058Z,986.09
2022-12-29T02:16:39.098Z,986.01
2022-12-29T02:17:39.097Z,986.09
2022-12-29T02:18:39.105Z,986.09
2022-12-29T02:19:39.133Z,986.08
2022-12-29T02:20:39.134Z,986.1
2022-12-29T02:21:39.154Z,986.09
2022-12-29T02:22:39.173Z,986.09
2022-12-29T02:23:39.184Z,986.11
2022-12-29T02:24:39.229Z,985.97
2022-12-29T02:25:39.217Z,986.07
2022-12-29T02:26:39.228Z,986.05
2022-12-29T02:27:39.241Z,986.12
2022-12-29T02:28:39.288Z,986.12
2022-12-29T02:29:39.273Z,986.1
2022-12-29T02:30:39.291Z,986.25
2022-12-29T02:31:39.413Z,986.2
2022-12-29T02:32:39.318Z,986.18
2022-12-29T02:33:39.336Z,986.23
2022-12-29T02:34:39.356Z,986.19
2022-12-29T02:35:39.365Z,986.2
2022-12-29T02:36:39.385Z,986.32
2022-12-29T02:37:39.426Z,986.19
2022-12-29T02:38:39.413Z,986.12
2022-12-29T02:39:39.427Z,986.09
2022-12-29T02:40:39.444Z,986.1
2022-12-29T02:41:39.456Z,986.07
2022-12-29T02:42:39.479Z,986.12
2022-12-29T02:43:39.507Z,986.14
2022-12-29T02:44:39.530Z,986.12
2022-12-29T02:45:39.562Z,986.16
2022-12-29T02:46:39.535Z,986.13
2022-12-29T02:47:39.550Z,986.17
2022-12-29T02:48:39.569Z,986.14
2022-12-29T02:49:39.587Z,986.21
2022-12-29T02:50:39.597Z,986.2
2022-12-29T02:51:39.611Z,986.2
2022-12-29T02:52:39.628Z,986.17
2022-12-29T02:53:39.648Z,986.18
2022-12-29T02:54:39.660Z,986.24
2022-12-29T02:55:39.674Z,986.23
2022-12-29T02:56:39.692Z,986.1
2022-12-29T02:57:39.706Z,986.1
2022-12-29T02:58:39.722Z,986.07
2022-12-29T02:59:39.734Z,986.08
2022-12-29T03:00:39.783Z,986
2022-12-29T03:01:39.920Z,986.11
2022-12-29T03:02:39.881Z,986.09
2022-12-29T03:03:39.796Z,986.02
2022-12-29T03:04:39.810Z,985.94
2022-12-29T03:05:39.828Z,985.96
2022-12-29T03:06:39.844Z,985.97
2022-12-29T03:07:39.857Z,985.93
2022-12-29T03:08:39.875Z,985.96
2022-12-29T03:09:39.889Z,985.89
2022-12-29T03:10:40.305Z,985.89
2022-12-29T03:11:39.920Z,985.87
2022-12-29T03:12:39.939Z,985.77
2022-12-29T03:13:39.958Z,985.74
2022-12-29T03:14:39.965Z,985.69
2022-12-29T03:15:39.987Z,985.81
2022-12-29T03:16:40.075Z,985.82
2022-12-29T03:17:40.020Z,985.77
2022-12-29T03:18:40.059Z,985.73
2022-12-29T03:19:40.047Z,985.65
2022-12-29T03:20:40.071Z,985.69
2022-12-29T03:21:40.075Z,985.69
2022-12-29T03:22:40.093Z,985.63
2022-12-29T03:23:40.107Z,985.61
2022-12-29T03:24:40.131Z,985.64
2022-12-29T03:25:40.154Z,985.6
2022-12-29T03:26:40.152Z,985.58
2022-12-29T03:27:40.171Z,985.55
2022-12-29T03:28:40.188Z,985.63
2022-12-29T03:29:40.204Z,985.62
2022-12-29T03:30:40.249Z,985.64
2022-12-29T03:31:40.230Z,985.59
2022-12-29T03:32:40.271Z,985.54
2022-12-29T03:33:40.268Z,985.62
2022-12-29T03:34:40.285Z,985.47
2022-12-29T03:35:40.297Z,985.51
2022-12-29T03:36:40.305Z,985.52
2022-12-29T03:37:40.324Z,985.57
2022-12-29T03:38:40.341Z,985.59
2022-12-29T03:39:40.353Z,985.58
2022-12-29T03:40:40.367Z,985.55
2022-12-29T03:41:40.386Z,985.62
2022-12-29T03:42:40.399Z,985.54
2022-12-29T03:43:40.414Z,985.64
2022-12-29T03:44:40.430Z,985.55
2022-12-29T03:45:40.450Z,985.55
2022-12-29T03:46:40.505Z,985.57
2022-12-29T03:47:40.478Z,985.54
2022-12-29T03:48:40.529Z,985.57
2022-12-29T03:49:40.510Z,985.53
2022-12-29T03:50:40.525Z,985.57
2022-12-29T03:51:40.539Z,985.49
2022-12-29T03:52:40.554Z,985.4
2022-12-29T03:53:40.573Z,985.51
2022-12-29T03:54:40.585Z,985.5
2022-12-29T03:55:40.606Z,985.47
2022-12-29T03:56:40.616Z,985.41
2022-12-29T03:57:40.636Z,985.45
2022-12-29T03:58:40.647Z,985.41
2022-12-29T03:59:40.669Z,985.41
2022-12-29T04:00:40.675Z,985.34
2022-12-29T04:01:40.761Z,985.35
2022-12-29T04:02:40.791Z,985.43
2022-12-29T04:03:40.919Z,985.38
2022-12-29T04:04:40.775Z,985.35
2022-12-29T04:05:40.755Z,985.32
2022-12-29T04:06:40.771Z,985.25
2022-12-29T04:07:40.787Z,985.31
2022-12-29T04:08:40.821Z,985.32
2022-12-29T04:09:40.819Z,985.3
2022-12-29T04:10:41.235Z,985.28
2022-12-29T04:11:40.858Z,985.27
2022-12-29T04:12:40.867Z,985.33
2022-12-29T04:13:40.882Z,985.33
2022-12-29T04:14:40.895Z,985.35
2022-12-29T04:15:40.953Z,985.35
2022-12-29T04:16:40.925Z,985.38
2022-12-29T04:17:40.940Z,985.37
2022-12-29T04:18:40.966Z,985.32
2022-12-29T04:19:40.973Z,985.37
2022-12-29T04:20:41.016Z,985.3
2022-12-29T04:21:41.001Z,985.3
2022-12-29T04:22:41.023Z,985.28
2022-12-29T04:23:41.031Z,985.3
2022-12-29T04:24:41.052Z,985.3
2022-12-29T04:25:41.077Z,985.27
2022-12-29T04:26:41.083Z,985.33
2022-12-29T04:27:41.097Z,985.29
2022-12-29T04:28:41.119Z,985.34
2022-12-29T04:29:41.136Z,985.35
2022-12-29T04:30:41.159Z,985.34
2022-12-29T04:31:41.268Z,985.3
2022-12-29T04:32:41.180Z,985.24
2022-12-29T04:33:41.199Z,985.27
2022-12-29T04:34:41.206Z,985.31
2022-12-29T04:35:41.224Z,985.29
2022-12-29T04:36:41.259Z,985.25
2022-12-29T04:37:41.255Z,985.28
2022-12-29T04:38:41.268Z,985.14
2022-12-29T04:39:41.280Z,985.22
2022-12-29T04:40:41.297Z,985.15
2022-12-29T04:41:41.314Z,985.16
2022-12-29T04:42:41.334Z,985.16
2022-12-29T04:43:41.343Z,985.18
2022-12-29T04:44:44.986Z,985.16
2022-12-29T04:45:41.375Z,985.18
2022-12-29T04:46:41.458Z,985.09
2022-12-29T04:47:41.414Z,985.13
2022-12-29T04:48:41.434Z,985.06
2022-12-29T04:49:41.438Z,985.12
2022-12-29T04:50:41.464Z,985.14
2022-12-29T04:51:41.474Z,985.12
2022-12-29T04:52:41.516Z,985.06
2022-12-29T04:53:41.500Z,985.19
2022-12-29T04:54:41.518Z,985.08
2022-12-29T04:55:41.535Z,985.09
2022-12-29T04:56:41.546Z,985.1
2022-12-29T04:57:41.562Z,985.15
2022-12-29T04:58:41.582Z,985.09
2022-12-29T04:59:41.597Z,985.24
2022-12-29T05:00:41.607Z,985.08
2022-12-29T05:01:41.775Z,985.01
2022-12-29T05:02:41.789Z,985.06
2022-12-29T05:03:41.706Z,985.17
2022-12-29T05:04:41.671Z,985.14
2022-12-29T05:05:41.687Z,985.25
2022-12-29T05:06:41.705Z,985.19
2022-12-29T05:07:41.719Z,985.16
2022-12-29T05:08:41.765Z,985.05
2022-12-29T05:09:41.752Z,984.98
2022-12-29T05:10:42.068Z,985.09
2022-12-29T05:11:41.782Z,985.15
2022-12-29T05:12:41.801Z,985.13
2022-12-29T05:13:41.819Z,985.05
2022-12-29T05:14:41.826Z,985.02
2022-12-29T05:15:41.895Z,984.99
2022-12-29T05:16:41.874Z,984.98
2022-12-29T05:17:41.876Z,984.93
2022-12-29T05:18:41.887Z,984.94
2022-12-29T05:19:41.902Z,984.96
2022-12-29T05:20:41.919Z,984.97
2022-12-29T05:21:41.938Z,984.95
2022-12-29T05:22:41.953Z,984.93
2022-12-29T05:23:41.967Z,984.97
2022-12-29T05:24:42.007Z,984.99
2022-12-29T05:25:42.014Z,985
2022-12-29T05:26:42.013Z,984.98
2022-12-29T05:27:42.031Z,984.98
2022-12-29T05:28:42.044Z,985
2022-12-29T05:29:42.065Z,984.91
2022-12-29T05:30:42.095Z,984.92
2022-12-29T05:31:42.181Z,984.91
2022-12-29T05:32:42.106Z,984.9
2022-12-29T05:33:42.120Z,984.9
2022-12-29T05:34:42.142Z,984.86
2022-12-29T05:35:42.152Z,984.87
2022-12-29T05:36:42.167Z,984.84
2022-12-29T05:37:42.184Z,984.82
2022-12-29T05:38:42.209Z,984.89
2022-12-29T05:39:42.216Z,984.88
2022-12-29T05:40:42.259Z,984.95
2022-12-29T05:41:42.263Z,984.87
2022-12-29T05:42:42.263Z,984.91
2022-12-29T05:43:42.299Z,984.98
2022-12-29T05:44:42.328Z,985.01
2022-12-29T05:45:42.310Z,985.01
2022-12-29T05:46:42.364Z,985.05
2022-12-29T05:47:42.336Z,984.96
2022-12-29T05:48:42.370Z,984.95
2022-12-29T05:49:42.373Z,984.98
2022-12-29T05:50:42.387Z,984.94
2022-12-29T05:51:42.400Z,984.95
2022-12-29T05:52:42.420Z,984.87
2022-12-29T05:53:42.432Z,985.02
2022-12-29T05:54:42.449Z,984.89
2022-12-29T05:55:46.915Z,984.78
2022-12-29T05:56:42.508Z,984.76
2022-12-29T05:57:42.558Z,984.82
2022-12-29T05:58:42.509Z,984.86
2022-12-29T05:59:42.524Z,984.94
2022-12-29T06:00:42.548Z,984.93
2022-12-29T06:01:42.681Z,984.91
2022-12-29T06:02:42.806Z,984.75
2022-12-29T06:03:47.861Z,984.82
2022-12-29T06:04:42.603Z,984.83
2022-12-29T06:05:42.618Z,984.85
2022-12-29T06:06:42.637Z,984.87
2022-12-29T06:07:42.657Z,984.84
2022-12-29T06:08:42.684Z,984.88
2022-12-29T06:09:42.677Z,984.9
2022-12-29T06:10:43.051Z,984.88
2022-12-29T06:11:42.709Z,984.88
2022-12-29T06:12:42.750Z,984.92
2022-12-29T06:13:42.742Z,984.95
2022-12-29T06:14:42.766Z,984.9
2022-12-29T06:15:42.772Z,984.91
2022-12-29T06:16:42.846Z,984.94
2022-12-29T06:17:42.808Z,984.93
2022-12-29T06:18:42.819Z,984.95
2022-12-29T06:19:42.836Z,985.01
2022-12-29T06:20:42.861Z,985.05
2022-12-29T06:21:42.869Z,985.12
2022-12-29T06:22:42.884Z,985.09
2022-12-29T06:23:42.899Z,985.06
2022-12-29T06:24:42.915Z,985.13
2022-12-29T06:25:42.924Z,985.09
2022-12-29T06:26:42.970Z,985.05
2022-12-29T06:27:42.968Z,985.1
2022-12-29T06:28:43.002Z,985.19
2022-12-29T06:29:42.990Z,985.08
2022-12-29T06:30:43.016Z,985.17
2022-12-29T06:31:43.037Z,985.15
2022-12-29T06:32:43.035Z,985.15
2022-12-29T06:33:45.198Z,985.14
2022-12-29T06:34:43.074Z,985.18
2022-12-29T06:35:43.086Z,985.12
2022-12-29T06:36:43.106Z,985.1
2022-12-29T06:37:43.123Z,985.09
2022-12-29T06:38:43.133Z,985.15
2022-12-29T06:39:43.148Z,985.14
2022-12-29T06:40:43.164Z,985.02
2022-12-29T06:41:43.179Z,985.08
2022-12-29T06:42:43.190Z,985.06
2022-12-29T06:43:43.209Z,985.11
2022-12-29T06:44:43.249Z,985.09
2022-12-29T06:45:43.318Z,985.1
2022-12-29T06:46:43.264Z,984.99
2022-12-29T06:47:43.268Z,985.03
2022-12-29T06:48:43.303Z,985.17
2022-12-29T06:49:43.302Z,985.22
2022-12-29T06:50:43.317Z,985.25
2022-12-29T06:51:43.337Z,985.06
2022-12-29T06:52:43.348Z,985.19
2022-12-29T06:53:43.366Z,985.17
2022-12-29T06:54:43.379Z,985.16
2022-12-29T06:55:43.396Z,985.2
2022-12-29T06:56:43.417Z,985.26
2022-12-29T06:57:43.426Z,985.24
2022-12-29T06:58:43.441Z,985.28
2022-12-29T06:59:43.460Z,985.33
2022-12-29T07:00:43.515Z,985.33
2022-12-29T07:01:43.558Z,985.23
2022-12-29T07:02:43.549Z,985.39
2022-12-29T07:03:43.527Z,985.23
2022-12-29T07:04:43.537Z,985.25
2022-12-29T07:05:43.550Z,985.33
2022-12-29T07:06:43.568Z,985.22
2022-12-29T07:07:43.600Z,985.33
2022-12-29T07:08:43.599Z,985.33
2022-12-29T07:09:43.620Z,985.33
2022-12-29T07:10:44.029Z,985.39
2022-12-29T07:11:43.651Z,985.38
2022-12-29T07:12:43.659Z,985.33
2022-12-29T07:13:43.679Z,985.4
2022-12-29T07:14:43.857Z,985.3
2022-12-29T07:15:43.713Z,985.39
2022-12-29T07:16:43.794Z,985.4
2022-12-29T07:17:43.765Z,985.32
2022-12-29T07:18:43.753Z,985.34
2022-12-29T07:19:43.774Z,985.33
2022-12-29T07:20:43.788Z,985.31
2022-12-29T07:21:44.411Z,985.35
2022-12-29T07:22:43.817Z,985.27
2022-12-29T07:23:43.836Z,985.25
2022-12-29T07:24:43.848Z,985.21
2022-12-29T07:25:43.862Z,985.35
2022-12-29T07:26:43.881Z,985.37
2022-12-29T07:27:43.899Z,985.38
2022-12-29T07:28:43.915Z,985.42
2022-12-29T07:29:43.929Z,985.38
2022-12-29T07:30:43.942Z,985.46
2022-12-29T07:31:43.990Z,985.48
2022-12-29T07:32:44.005Z,985.52
2022-12-29T07:33:43.990Z,985.56
2022-12-29T07:34:44.005Z,985.6
2022-12-29T07:35:44.026Z,985.59
2022-12-29T07:36:44.040Z,985.63
2022-12-29T07:37:44.055Z,985.54
2022-12-29T07:38:44.067Z,985.52
2022-12-29T07:39:44.080Z,985.63
2022-12-29T07:40:44.111Z,985.67
2022-12-29T07:41:44.124Z,985.64
2022-12-29T07:42:44.147Z,985.61
2022-12-29T07:43:44.143Z,985.54
2022-12-29T07:44:44.165Z,985.64
2022-12-29T07:45:44.198Z,985.67
2022-12-29T07:46:53.578Z,985.77
2022-12-29T07:47:44.208Z,985.66
2022-12-29T07:48:44.255Z,985.77
2022-12-29T07:49:44.244Z,985.68
2022-12-29T07:50:44.255Z,985.71
2022-12-29T07:51:44.278Z,985.73
2022-12-29T07:52:44.287Z,985.76
2022-12-29T07:53:44.304Z,985.74
2022-12-29T07:54:44.321Z,985.72
2022-12-29T07:55:44.347Z,985.76
2022-12-29T07:56:44.350Z,985.83
2022-12-29T07:57:44.363Z,985.76
2022-12-29T07:58:44.380Z,985.83
2022-12-29T07:59:44.399Z,985.84
2022-12-29T08:00:44.415Z,985.83
2022-12-29T08:01:44.524Z,985.88
2022-12-29T08:02:44.566Z,985.88
2022-12-29T08:03:44.522Z,985.93
2022-12-29T08:04:44.509Z,985.93
2022-12-29T08:05:44.489Z,985.99
2022-12-29T08:06:44.506Z,986.07
2022-12-29T08:07:44.521Z,986.1
2022-12-29T08:08:44.537Z,986.09
2022-12-29T08:09:44.556Z,986.07
2022-12-29T08:10:44.769Z,986.11
2022-12-29T08:11:44.598Z,986.19
2022-12-29T08:12:44.598Z,986.22
2022-12-29T08:13:44.623Z,986.2
2022-12-29T08:14:44.643Z,986.26
2022-12-29T08:15:44.680Z,986.3
2022-12-29T08:16:44.674Z,986.28
2022-12-29T08:17:44.683Z,986.21
2022-12-29T08:18:44.697Z,986.32
2022-12-29T08:19:44.714Z,986.26
2022-12-29T08:20:44.751Z,986.29
2022-12-29T08:21:44.749Z,986.37
2022-12-29T08:22:44.762Z,986.23
2022-12-29T08:23:44.775Z,986.28
2022-12-29T08:24:44.793Z,986.26
2022-12-29T08:25:44.807Z,986.23
2022-12-29T08:26:44.860Z,986.2
2022-12-29T08:27:44.835Z,986.18
2022-12-29T08:28:45.366Z,986.14
2022-12-29T08:29:44.874Z,986.25
2022-12-29T08:30:44.917Z,986.3
2022-12-29T08:31:44.949Z,986.3
2022-12-29T08:32:44.915Z,986.29
2022-12-29T08:33:44.931Z,986.33
2022-12-29T08:34:44.952Z,986.39
2022-12-29T08:35:44.964Z,986.38
2022-12-29T08:36:45.005Z,986.37
2022-12-29T08:37:44.995Z,986.4
2022-12-29T08:38:45.009Z,986.35
2022-12-29T08:39:45.032Z,986.35
2022-12-29T08:40:45.048Z,986.42
2022-12-29T08:41:45.057Z,986.45
2022-12-29T08:42:45.075Z,986.44
2022-12-29T08:43:45.088Z,986.41
2022-12-29T08:44:45.103Z,986.47
2022-12-29T08:45:45.160Z,986.45
2022-12-29T08:46:45.210Z,986.46
2022-12-29T08:47:45.158Z,986.37
2022-12-29T08:48:45.167Z,986.38
2022-12-29T08:49:45.183Z,986.38
2022-12-29T08:50:45.196Z,986.42
2022-12-29T08:51:45.213Z,986.46
2022-12-29T08:52:45.253Z,986.43
2022-12-29T08:53:45.247Z,986.47
2022-12-29T08:54:45.335Z,986.54
2022-12-29T08:55:45.278Z,986.54
2022-12-29T08:56:45.300Z,986.51
2022-12-29T08:57:45.310Z,986.52
2022-12-29T08:58:45.331Z,986.6
2022-12-29T08:59:45.345Z,986.61
2022-12-29T09:00:45.359Z,986.62
2022-12-29T09:01:45.541Z,986.64
2022-12-29T09:02:45.567Z,986.59
2022-12-29T09:04:13.306Z,986.61
2022-12-29T09:04:45.499Z,986.51
2022-12-29T09:05:45.437Z,986.51
2022-12-29T09:06:45.527Z,986.5
2022-12-29T09:07:45.468Z,986.43
2022-12-29T09:08:45.510Z,986.48
2022-12-29T09:09:45.497Z,986.45
2022-12-29T09:10:45.962Z,986.43
2022-12-29T09:11:45.549Z,986.45
2022-12-29T09:12:45.551Z,986.47
2022-12-29T09:13:45.560Z,986.5
2022-12-29T09:14:45.588Z,986.53
2022-12-29T09:15:45.639Z,986.58
2022-12-29T09:16:45.610Z,986.53
2022-12-29T09:17:45.622Z,986.54
2022-12-29T09:18:45.647Z,986.62
2022-12-29T09:19:45.653Z,986.6
2022-12-29T09:20:45.672Z,986.61
2022-12-29T09:21:45.683Z,986.7
2022-12-29T09:22:45.709Z,986.61
2022-12-29T09:23:45.720Z,986.7
2022-12-29T09:24:45.761Z,986.57
2022-12-29T09:25:45.750Z,986.62
2022-12-29T09:26:47.148Z,986.63
2022-12-29T09:27:45.800Z,986.68
2022-12-29T09:28:45.810Z,986.71
2022-12-29T09:29:45.813Z,986.78
2022-12-29T09:30:45.825Z,986.75
2022-12-29T09:31:45.874Z,986.79
2022-12-29T09:32:47.753Z,986.74
2022-12-29T09:33:45.879Z,986.81
2022-12-29T09:34:45.895Z,986.74
2022-12-29T09:35:45.907Z,986.7
2022-12-29T09:36:45.938Z,986.74
2022-12-29T09:37:45.943Z,986.74
2022-12-29T09:38:45.957Z,986.85
2022-12-29T09:39:50.581Z,986.81
2022-12-29T09:40:46.016Z,986.85
2022-12-29T09:41:46.008Z,986.89
2022-12-29T09:42:46.017Z,986.87
2022-12-29T09:43:46.033Z,986.86
2022-12-29T09:44:46.055Z,986.86
2022-12-29T09:45:46.065Z,986.82
2022-12-29T09:46:46.116Z,986.83
2022-12-29T09:47:46.106Z,986.85
2022-12-29T09:48:46.111Z,986.85
2022-12-29T09:49:46.130Z,986.8
2022-12-29T09:50:46.147Z,986.87
2022-12-29T09:51:46.161Z,986.84
2022-12-29T09:52:46.180Z,986.81
2022-12-29T09:53:46.191Z,986.77
2022-12-29T09:54:51.623Z,986.81
2022-12-29T09:55:46.225Z,986.84
2022-12-29T09:56:46.269Z,986.73
2022-12-29T09:57:46.246Z,986.78
2022-12-29T09:58:46.278Z,986.7
2022-12-29T09:59:46.305Z,986.71
2022-12-29T10:00:49.882Z,986.67
2022-12-29T10:01:46.418Z,986.75
2022-12-29T10:02:46.415Z,986.84
2022-12-29T10:03:46.352Z,986.88
2022-12-29T10:04:46.368Z,986.85
2022-12-29T10:05:46.384Z,986.8
2022-12-29T10:07:11.316Z,986.81
2022-12-29T10:07:46.411Z,986.8
2022-12-29T10:08:46.427Z,986.81
2022-12-29T10:09:46.447Z,986.83
2022-12-29T10:10:46.910Z,986.81
2022-12-29T10:11:46.480Z,986.8
2022-12-29T10:12:46.521Z,986.85
2022-12-29T10:13:46.512Z,986.88
2022-12-29T10:14:46.522Z,986.86
2022-12-29T10:15:46.538Z,986.91
2022-12-29T10:16:46.638Z,986.87
2022-12-29T10:17:46.573Z,986.92
2022-12-29T10:18:46.585Z,986.94
2022-12-29T10:19:46.605Z,986.91
2022-12-29T10:20:46.619Z,986.98
2022-12-29T10:21:46.661Z,986.94
2022-12-29T10:22:46.649Z,986.98
2022-12-29T10:23:46.667Z,986.97
2022-12-29T10:24:46.680Z,987.02
2022-12-29T10:25:46.694Z,987.03
2022-12-29T10:26:46.710Z,987.05
2022-12-29T10:27:46.734Z,987.08
2022-12-29T10:28:46.772Z,987.12
2022-12-29T10:29:46.758Z,987.19
2022-12-29T10:30:46.788Z,987.19
2022-12-29T10:31:46.804Z,987.21
2022-12-29T10:32:46.809Z,987.19
2022-12-29T10:33:46.836Z,987.17
2022-12-29T10:34:46.836Z,987.17
2022-12-29T10:35:46.862Z,987.17
2022-12-29T10:36:46.870Z,987.26
2022-12-29T10:37:46.883Z,987.26
2022-12-29T10:38:46.901Z,987.35
2022-12-29T10:39:46.923Z,987.44
2022-12-29T10:40:46.935Z,987.41
2022-12-29T10:41:46.947Z,987.4
2022-12-29T10:42:46.963Z,987.14
2022-12-29T10:43:46.983Z,987.19
2022-12-29T10:44:47.022Z,987.07
2022-12-29T10:45:47.045Z,987.11
2022-12-29T10:46:47.026Z,987.11
2022-12-29T10:47:47.047Z,987.13
2022-12-29T10:48:47.058Z,987.13
2022-12-29T10:49:47.078Z,987.14
2022-12-29T10:50:47.109Z,987.1
2022-12-29T10:51:47.120Z,987.13
2022-12-29T10:52:47.121Z,987.15
2022-12-29T10:53:47.138Z,987.11
2022-12-29T10:54:47.155Z,987.09
2022-12-29T10:55:47.187Z,987.1
2022-12-29T10:56:47.184Z,987.1
2022-12-29T10:57:47.203Z,987.07
2022-12-29T10:58:49.669Z,987.05
2022-12-29T10:59:47.234Z,987.06
2022-12-29T11:00:47.337Z,987.11
2022-12-29T11:01:47.413Z,987.05
2022-12-29T11:02:47.469Z,987.07
2022-12-29T11:03:47.293Z,987.05
2022-12-29T11:04:47.320Z,987.07
2022-12-29T11:05:47.327Z,987.03
2022-12-29T11:06:47.343Z,987.02
2022-12-29T11:07:47.360Z,987.03
2022-12-29T11:08:47.373Z,987.03
2022-12-29T11:09:47.451Z,987.01
2022-12-29T11:10:47.470Z,986.98
2022-12-29T11:11:47.423Z,986.96
2022-12-29T11:12:47.437Z,987.01
2022-12-29T11:13:47.486Z,987.01
2022-12-29T11:14:47.472Z,987.03
2022-12-29T11:15:47.491Z,986.99
2022-12-29T11:16:47.630Z,987
2022-12-29T11:17:47.528Z,987.04
2022-12-29T11:18:47.532Z,986.99
2022-12-29T11:19:47.559Z,986.99
2022-12-29T11:20:47.570Z,986.98
2022-12-29T11:21:47.585Z,986.96
2022-12-29T11:22:47.597Z,986.92
2022-12-29T11:23:47.609Z,986.95
2022-12-29T11:24:47.633Z,986.98
2022-12-29T11:25:47.659Z,987.02
2022-12-29T11:26:47.659Z,987.05
2022-12-29T11:27:47.674Z,987.13
2022-12-29T11:28:47.702Z,987.05
2022-12-29T11:29:47.711Z,987.07
2022-12-29T11:30:47.724Z,987.13
2022-12-29T11:31:47.811Z,987.13
2022-12-29T11:32:47.780Z,987.11
2022-12-29T11:33:47.768Z,987.17
2022-12-29T11:34:47.783Z,987.12
2022-12-29T11:35:47.799Z,987.16
2022-12-29T11:36:47.819Z,987.15
2022-12-29T11:37:47.848Z,987.11
2022-12-29T11:38:47.855Z,987.09
2022-12-29T11:39:47.859Z,987.12
2022-12-29T11:40:47.882Z,987.17
2022-12-29T11:41:47.894Z,987.2
2022-12-29T11:42:47.914Z,987.19
2022-12-29T11:43:47.925Z,987.17
2022-12-29T11:44:47.943Z,987.13
2022-12-29T11:45:47.998Z,987.24
2022-12-29T11:46:47.977Z,987.18
2022-12-29T11:47:48.001Z,987.2
2022-12-29T11:48:48.028Z,987.19
2022-12-29T11:49:48.019Z,987.25
2022-12-29T11:50:48.036Z,987.23
2022-12-29T11:51:48.061Z,987.28
2022-12-29T11:52:48.067Z,987.27
2022-12-29T11:53:48.084Z,987.31
2022-12-29T11:54:48.097Z,987.36
2022-12-29T11:55:48.117Z,987.33
2022-12-29T11:56:48.131Z,987.35
2022-12-29T11:57:48.154Z,987.38
2022-12-29T11:58:48.162Z,987.38
2022-12-29T11:59:48.178Z,987.38
2022-12-29T12:00:48.194Z,987.33
2022-12-29T12:01:48.259Z,987.25
2022-12-29T12:02:48.290Z,987.25
2022-12-29T12:03:48.372Z,987.33
2022-12-29T12:04:48.280Z,987.33
2022-12-29T12:05:48.271Z,987.3
2022-12-29T12:06:48.288Z,987.32
2022-12-29T12:07:48.306Z,987.25
2022-12-29T12:08:48.320Z,987.31
2022-12-29T12:09:48.342Z,987.35
2022-12-29T12:10:48.654Z,987.31
2022-12-29T12:11:48.369Z,987.31
2022-12-29T12:12:48.381Z,987.3
2022-12-29T12:13:48.406Z,987.33
2022-12-29T12:14:48.415Z,987.31
2022-12-29T12:15:52.752Z,987.36
2022-12-29T12:16:48.481Z,987.32
2022-12-29T12:17:48.466Z,987.34
2022-12-29T12:18:48.473Z,987.37
2022-12-29T12:19:48.504Z,987.27
2022-12-29T12:20:48.533Z,987.42
2022-12-29T12:21:48.533Z,987.36
2022-12-29T12:22:48.540Z,987.38
2022-12-29T12:23:48.559Z,987.35
2022-12-29T12:24:48.574Z,987.41
2022-12-29T12:25:48.593Z,987.35
2022-12-29T12:26:48.604Z,987.42
2022-12-29T12:27:48.620Z,987.42
2022-12-29T12:28:48.635Z,987.37
2022-12-29T12:29:48.654Z,987.44
2022-12-29T12:30:48.689Z,987.3
2022-12-29T12:31:48.695Z,987.43